Time;durP1;ratioP1;P1;durP2;ratioP2;P2;SDS_P1;SDS_P2;PMS_P1;PMS_P2;Temp;Humidity;BMP_temperature;BMP_pressure;BME280_temperature;BME280_humidity;BME280_pressure;Samples;Min_cycle;Max_cycle;Signal;HPM_P1;HPM_P2
2021/06/01 00:01:21;;;;;;;0.60;0.50;;;14.10;99.90;;;;;;4961810;29;20213;-86
2021/06/01 00:03:46;;;;;;;2.43;0.80;;;14.00;99.90;;;;;;4962610;29;20225;-83
2021/06/01 00:06:12;;;;;;;1.27;0.87;;;14.10;99.90;;;;;;4977328;28;20600;-83
2021/06/01 00:08:38;;;;;;;1.33;0.70;;;14.20;99.90;;;;;;4977251;28;20180;-83
2021/06/01 00:11:04;;;;;;;1.23;0.70;;;14.30;99.90;;;;;;4962672;29;20574;-82
2021/06/01 00:13:29;;;;;;;1.00;0.80;;;14.30;99.90;;;;;;4962330;29;20656;-81
2021/06/01 00:15:55;;;;;;;2.07;0.63;;;14.40;99.90;;;;;;4979096;28;20256;-82
2021/06/01 00:18:21;;;;;;;0.90;0.70;;;14.30;99.90;;;;;;4963440;29;20600;-80
2021/06/01 00:20:46;;;;;;;0.90;0.50;;;14.30;99.90;;;;;;4977981;28;20336;-81
2021/06/01 00:23:12;;;;;;;2.20;0.67;;;14.30;99.90;;;;;;4961488;28;20186;-81
2021/06/01 00:25:37;;;;;;;1.97;0.80;;;14.30;99.90;;;;;;4977778;28;20217;-81
2021/06/01 00:28:03;;;;;;;1.20;1.00;;;14.30;99.90;;;;;;4962090;29;20264;-79
2021/06/01 00:30:29;;;;;;;1.60;0.73;;;14.10;99.90;;;;;;4961142;29;20205;-80
2021/06/01 00:32:54;;;;;;;0.97;0.70;;;14.20;99.90;;;;;;4976616;28;20658;-80
2021/06/01 00:35:20;;;;;;;1.03;0.73;;;14.20;99.90;;;;;;4959993;29;20186;-80
2021/06/01 00:37:45;;;;;;;0.67;0.67;;;14.20;99.90;;;;;;4960325;29;20269;-81
2021/06/01 00:40:11;;;;;;;2.07;0.60;;;14.10;99.90;;;;;;4960650;29;20265;-80
2021/06/01 00:42:37;;;;;;;1.07;0.63;;;14.00;99.90;;;;;;4960898;29;20187;-80
2021/06/01 00:45:03;;;;;;;1.47;1.00;;;13.90;99.90;;;;;;4960000;29;20221;-81
2021/06/01 00:47:28;;;;;;;0.90;0.70;;;13.70;99.90;;;;;;4960043;29;20186;-82
2021/06/01 00:49:54;;;;;;;1.73;0.80;;;13.70;99.90;;;;;;4960839;29;20205;-84
2021/06/01 00:52:19;;;;;;;1.70;0.83;;;13.60;99.90;;;;;;4977728;28;20208;-81
2021/06/01 00:54:45;;;;;;;0.70;0.60;;;13.50;99.90;;;;;;4977532;28;20186;-80
2021/06/01 00:57:11;;;;;;;1.77;0.90;;;13.40;99.90;;;;;;4961651;29;20181;-82
2021/06/01 00:59:36;;;;;;;1.10;0.80;;;13.30;99.90;;;;;;4977498;28;20178;-81
2021/06/01 01:02:04;;;;;;;1.47;0.87;;;13.20;99.90;;;;;;4960555;29;20624;-81
2021/06/01 01:04:30;;;;;;;0.83;0.70;;;13.10;99.90;;;;;;4960729;29;20205;-79
2021/06/01 01:07:02;;;;;;;1.30;0.70;;;13.10;99.90;;;;;;4960545;29;20236;-80
2021/06/01 01:09:30;;;;;;;1.00;0.70;;;13.00;99.90;;;;;;4959198;29;20178;-79
2021/06/01 01:12:21;;;;;;;1.57;0.97;;;13.20;99.90;;;;;;4957205;29;20494;-79
2021/06/01 01:14:50;;;;;;;0.93;0.80;;;13.20;99.90;;;;;;4954509;29;20212;-79
2021/06/01 01:17:25;;;;;;;1.57;1.00;;;13.30;99.90;;;;;;4971583;28;20181;-79
2021/06/01 01:20:08;;;;;;;2.67;0.70;;;13.40;99.90;;;;;;4955815;29;20539;-79
2021/06/01 01:22:35;;;;;;;2.07;0.87;;;13.40;99.90;;;;;;4971080;28;20185;-79
2021/06/01 01:25:08;;;;;;;1.70;0.80;;;13.40;99.90;;;;;;4955367;29;20205;-79
2021/06/01 01:27:59;;;;;;;2.77;1.00;;;13.40;99.90;;;;;;4955563;29;20181;-79
2021/06/01 01:30:29;;;;;;;1.83;0.90;;;13.30;99.90;;;;;;4958260;28;20205;-79
2021/06/01 01:33:01;;;;;;;1.60;0.90;;;13.30;99.90;;;;;;4954617;29;20181;-79
2021/06/01 01:35:31;;;;;;;0.90;0.70;;;13.20;99.90;;;;;;4955002;28;20212;-79
2021/06/01 01:41:22;;;;;;;1.40;0.80;;;13.10;99.90;;;;;;4955615;29;20276;-78
2021/06/01 01:43:50;;;;;;;0.97;0.60;;;13.00;99.90;;;;;;4954483;29;20217;-81
2021/06/01 01:49:00;;;;;;;1.43;0.87;;;12.80;99.90;;;;;;4970031;28;20184;-79
2021/06/01 01:51:34;;;;;;;1.10;0.70;;;12.70;99.90;;;;;;4969332;28;20189;-79
2021/06/01 01:54:01;;;;;;;2.93;1.00;;;12.60;99.90;;;;;;4970484;28;20273;-79
2021/06/01 01:56:34;;;;;;;2.33;0.90;;;12.50;99.90;;;;;;4955266;29;20185;-79
2021/06/01 01:58:59;;;;;;;1.53;0.70;;;12.40;99.90;;;;;;4968921;28;20241;-79
2021/06/01 02:01:25;;;;;;;1.83;1.10;;;12.30;99.90;;;;;;4969532;28;20197;-79
2021/06/01 02:03:51;;;;;;;1.27;0.70;;;12.20;99.90;;;;;;4953744;29;20240;-79
2021/06/01 02:06:16;;;;;;;1.40;1.00;;;12.20;99.90;;;;;;4953586;29;20200;-79
2021/06/01 02:08:42;;;;;;;1.10;0.90;;;12.10;99.90;;;;;;4953943;29;20661;-79
2021/06/01 02:11:07;;;;;;;1.43;1.00;;;12.10;99.90;;;;;;4953362;29;20198;-79
2021/06/01 02:13:41;;;;;;;0.90;0.80;;;12.10;99.90;;;;;;4953561;29;20182;-79
2021/06/01 02:16:06;;;;;;;1.73;1.00;;;12.00;99.90;;;;;;4953473;29;20205;-79
2021/06/01 02:18:32;;;;;;;2.00;0.97;;;11.90;99.90;;;;;;4953758;29;20795;-79
2021/06/01 02:20:59;;;;;;;1.17;0.97;;;11.90;99.90;;;;;;4969442;28;20674;-79
2021/06/01 02:23:48;;;;;;;1.97;1.03;;;11.80;99.90;;;;;;4953053;29;20205;-78
2021/06/01 02:26:29;;;;;;;2.60;1.10;;;11.80;99.90;;;;;;4966986;28;20240;-79
2021/06/01 02:29:01;;;;;;;2.80;0.90;;;11.70;99.90;;;;;;4952911;29;20191;-78
2021/06/01 02:31:32;;;;;;;1.53;1.03;;;11.70;99.90;;;;;;4952138;29;20198;-78
2021/06/01 02:33:58;;;;;;;2.37;1.20;;;11.60;99.90;;;;;;4953054;29;20661;-78
2021/06/01 02:36:23;;;;;;;1.67;1.13;;;11.60;99.90;;;;;;4953190;29;20177;-79
2021/06/01 02:38:49;;;;;;;2.40;1.00;;;11.50;99.90;;;;;;4953063;29;20188;-78
2021/06/01 02:41:15;;;;;;;2.20;1.40;;;11.50;99.90;;;;;;4968888;28;20204;-79
2021/06/01 02:43:40;;;;;;;1.37;0.97;;;11.50;99.90;;;;;;4952779;29;20200;-78
2021/06/01 02:46:06;;;;;;;2.13;1.10;;;11.50;99.90;;;;;;4952602;29;20580;-79
2021/06/01 02:48:31;;;;;;;1.70;1.20;;;11.40;99.90;;;;;;4952639;29;20260;-78
2021/06/01 02:50:57;;;;;;;2.03;1.20;;;11.40;99.90;;;;;;4951933;29;20205;-79
2021/06/01 02:53:23;;;;;;;2.63;1.13;;;11.40;99.90;;;;;;4968988;28;20174;-78
2021/06/01 02:55:49;;;;;;;1.90;1.17;;;11.30;99.90;;;;;;4952631;29;20646;-79
2021/06/01 02:58:15;;;;;;;1.60;1.20;;;11.40;99.90;;;;;;4952644;29;20181;-78
2021/06/01 03:00:42;;;;;;;3.00;1.07;;;11.30;99.90;;;;;;4968747;28;20683;-79
2021/06/01 03:03:08;;;;;;;2.57;1.40;;;11.30;99.90;;;;;;4968850;28;20173;-79
2021/06/01 03:05:34;;;;;;;2.73;1.13;;;11.20;99.90;;;;;;4952242;29;20685;-79
2021/06/01 03:08:10;;;;;;;1.57;1.20;;;11.30;99.90;;;;;;4952784;29;20190;-79
2021/06/01 03:10:36;;;;;;;3.13;1.40;;;11.20;99.90;;;;;;4952602;29;20313;-78
2021/06/01 03:13:01;;;;;;;2.40;1.30;;;11.20;99.90;;;;;;4952622;29;20539;-79
2021/06/01 03:15:27;;;;;;;3.43;1.40;;;11.10;99.90;;;;;;4952557;29;20185;-78
2021/06/01 03:17:53;;;;;;;2.43;1.30;;;11.10;99.90;;;;;;4953024;29;20196;-78
2021/06/01 03:20:18;;;;;;;1.53;1.20;;;11.00;99.90;;;;;;4967882;28;20212;-79
2021/06/01 03:22:44;;;;;;;2.83;1.37;;;11.00;99.90;;;;;;4968714;28;20197;-79
2021/06/01 03:25:10;;;;;;;1.83;1.33;;;11.00;99.90;;;;;;4952243;29;20213;-78
2021/06/01 03:27:36;;;;;;;1.90;1.43;;;11.00;99.90;;;;;;4968809;28;20216;-78
2021/06/01 03:30:01;;;;;;;3.17;1.60;;;11.00;99.90;;;;;;4943583;29;20185;-78
2021/06/01 03:32:27;;;;;;;1.93;1.30;;;10.90;99.90;;;;;;4933191;29;20664;-78
2021/06/01 03:34:52;;;;;;;1.43;1.30;;;10.90;99.90;;;;;;4924123;29;20206;-78
2021/06/01 03:37:18;;;;;;;2.23;1.40;;;10.90;99.90;;;;;;4933695;29;20186;-78
2021/06/01 03:39:43;;;;;;;1.67;1.40;;;10.90;99.90;;;;;;4960232;28;20217;-79
2021/06/01 03:42:12;;;;;;;1.63;1.30;;;10.90;99.90;;;;;;4937265;29;20671;-79
2021/06/01 03:44:41;;;;;;;2.17;1.50;;;10.90;99.90;;;;;;4968266;28;20588;-79
2021/06/01 03:47:07;;;;;;;1.93;1.10;;;10.90;99.90;;;;;;4952692;29;20251;-79
2021/06/01 03:49:33;;;;;;;4.30;1.20;;;10.90;99.90;;;;;;4952420;29;20181;-78
2021/06/01 03:51:59;;;;;;;3.33;1.40;;;10.90;99.90;;;;;;4951984;29;20208;-79
2021/06/01 03:54:25;;;;;;;1.73;1.30;;;10.90;99.90;;;;;;4969178;28;20228;-79
2021/06/01 03:56:51;;;;;;;2.70;1.40;;;10.90;99.90;;;;;;4952490;29;20181;-79
2021/06/01 03:59:16;;;;;;;2.87;1.40;;;10.80;99.90;;;;;;4971519;28;20189;-78
2021/06/01 04:01:42;;;;;;;2.90;1.40;;;10.90;99.90;;;;;;4956017;29;20215;-79
2021/06/01 04:04:10;;;;;;;3.60;1.50;;;10.80;99.90;;;;;;4970699;28;20758;-78
2021/06/01 04:11:51;;;;;;;2.50;1.20;;;11.00;99.90;;;;;;4939335;29;20232;-80
2021/06/01 04:14:19;;;;;;;3.43;1.33;;;11.00;99.90;;;;;;4942785;29;20181;-83
2021/06/01 04:16:45;;;;;;;3.20;1.33;;;11.00;99.90;;;;;;4940358;29;20569;-82
2021/06/01 04:19:10;;;;;;;1.77;1.33;;;11.00;99.90;;;;;;4939571;29;20679;-80
2021/06/01 04:21:36;;;;;;;2.83;1.53;;;11.00;99.90;;;;;;4954649;28;20205;-84
2021/06/01 04:24:01;;;;;;;2.63;1.33;;;11.00;99.90;;;;;;4937911;29;20221;-83
2021/06/01 04:26:29;;;;;;;2.20;1.23;;;11.10;99.90;;;;;;4953735;28;20190;-82
2021/06/01 04:28:58;;;;;;;3.37;1.60;;;11.10;99.90;;;;;;4939542;29;20271;-80
2021/06/01 04:31:23;;;;;;;1.57;1.23;;;11.20;99.90;;;;;;4937726;29;20202;-81
2021/06/01 04:33:49;;;;;;;1.87;1.30;;;11.50;99.90;;;;;;4938170;29;20208;-81
2021/06/01 04:36:14;;;;;;;3.13;1.40;;;11.60;99.90;;;;;;4937909;29;20189;-82
2021/06/01 04:38:40;;;;;;;3.00;1.37;;;11.60;99.90;;;;;;4953773;29;20192;-82
2021/06/01 04:41:06;;;;;;;4.50;1.50;;;11.60;99.90;;;;;;4937995;29;20233;-81
2021/06/01 04:43:31;;;;;;;3.80;1.43;;;11.70;99.90;;;;;;4953799;29;20669;-80
2021/06/01 04:45:57;;;;;;;2.40;1.67;;;11.70;99.90;;;;;;4954320;28;20315;-81
2021/06/01 04:48:23;;;;;;;2.47;1.60;;;11.90;99.90;;;;;;4937062;29;20212;-80
2021/06/01 04:50:48;;;;;;;2.50;1.50;;;12.10;99.90;;;;;;4937411;29;20237;-82
2021/06/01 04:53:15;;;;;;;2.77;1.50;;;12.30;99.90;;;;;;4938357;29;20268;-81
2021/06/01 04:55:40;;;;;;;2.47;1.27;;;12.50;99.90;;;;;;4940734;29;20196;-82
2021/06/01 04:58:06;;;;;;;2.07;1.30;;;12.70;99.90;;;;;;4939031;29;20186;-82
2021/06/01 05:00:31;;;;;;;2.53;1.60;;;12.80;99.90;;;;;;4954631;29;20202;-82
2021/06/01 05:02:57;;;;;;;2.47;1.40;;;12.90;99.90;;;;;;4938831;29;20182;-80
2021/06/01 05:05:23;;;;;;;1.80;1.50;;;12.90;99.90;;;;;;4937823;29;20202;-82
2021/06/01 05:07:48;;;;;;;2.80;1.43;;;13.00;99.90;;;;;;4941524;29;20194;-81
2021/06/01 05:10:14;;;;;;;2.07;1.30;;;13.20;99.90;;;;;;4937728;29;20213;-82
2021/06/01 05:12:39;;;;;;;2.73;1.40;;;13.20;99.90;;;;;;4953462;29;20317;-83
2021/06/01 05:15:07;;;;;;;1.93;1.60;;;13.30;99.90;;;;;;4953323;29;20443;-82
2021/06/01 05:17:32;;;;;;;2.93;1.70;;;13.30;99.90;;;;;;4953191;28;20178;-82
2021/06/01 05:19:58;;;;;;;2.90;1.60;;;13.50;99.90;;;;;;4936149;29;20192;-82
2021/06/01 05:22:23;;;;;;;2.77;1.50;;;13.60;99.90;;;;;;4934449;29;20577;-85
2021/06/01 05:24:49;;;;;;;2.37;1.70;;;13.70;99.90;;;;;;4920601;29;20682;-86
2021/06/01 05:27:14;;;;;;;2.00;1.43;;;13.90;99.90;;;;;;4936073;29;20205;-85
2021/06/01 05:29:44;;;;;;;2.33;1.43;;;14.10;99.90;;;;;;4935233;29;20225;-85
2021/06/01 05:32:55;;;;;;;2.53;1.80;;;14.20;99.90;;;;;;4937599;29;20619;-85
2021/06/01 05:35:06;;;;;;;2.20;1.27;;;14.40;99.90;;;;;;4937384;29;20699;-85
2021/06/01 05:37:35;;;;;;;2.70;1.50;;;14.50;99.90;;;;;;4937223;29;20273;-85
2021/06/01 05:40:01;;;;;;;1.60;1.50;;;14.90;99.90;;;;;;4937283;29;20198;-85
2021/06/01 05:42:27;;;;;;;4.83;1.80;;;15.70;99.90;;;;;;4936813;29;20275;-85
2021/06/01 05:44:52;;;;;;;2.83;1.70;;;16.70;99.90;;;;;;4936213;29;20366;-84
2021/06/01 05:47:18;;;;;;;3.63;1.20;;;17.20;99.90;;;;;;4937383;29;20174;-84
2021/06/01 05:49:44;;;;;;;1.97;1.60;;;17.70;99.90;;;;;;4939328;29;20186;-84
2021/06/01 05:52:09;;;;;;;1.83;1.50;;;18.00;99.90;;;;;;4936366;29;20654;-84
2021/06/01 05:54:36;;;;;;;2.13;1.60;;;18.20;99.90;;;;;;4936265;29;20166;-84
2021/06/01 05:57:01;;;;;;;2.07;1.60;;;18.30;99.90;;;;;;4936129;29;20219;-84
2021/06/01 05:59:27;;;;;;;2.77;1.67;;;18.40;99.90;;;;;;4935689;29;20677;-83
2021/06/01 06:01:53;;;;;;;6.93;1.60;;;18.50;99.90;;;;;;4937395;29;20217;-83
2021/06/01 06:04:18;;;;;;;4.33;1.90;;;18.70;99.90;;;;;;4936671;29;20217;-84
2021/06/01 06:06:45;;;;;;;2.80;1.73;;;19.20;99.90;;;;;;4936715;29;20179;-83
2021/06/01 06:09:10;;;;;;;2.93;1.40;;;19.90;99.90;;;;;;4936159;29;20182;-82
2021/06/01 06:11:36;;;;;;;2.67;1.37;;;20.80;99.90;;;;;;4935921;29;20224;-83
2021/06/01 06:14:01;;;;;;;2.17;1.47;;;21.30;99.90;;;;;;4936369;29;20269;-82
2021/06/01 06:16:29;;;;;;;3.43;1.53;;;21.30;99.90;;;;;;4937236;29;20569;-84
2021/06/01 06:18:57;;;;;;;2.00;1.67;;;21.90;99.90;;;;;;4935961;29;20754;-84
2021/06/01 06:21:22;;;;;;;1.60;1.30;;;22.60;99.90;;;;;;4935273;29;20202;-84
2021/06/01 06:23:48;;;;;;;2.30;1.63;;;22.80;99.90;;;;;;4936234;29;20233;-85
2021/06/01 06:26:13;;;;;;;4.77;2.00;;;22.10;99.90;;;;;;4935601;29;20175;-81
2021/06/01 06:28:39;;;;;;;2.27;1.50;;;21.40;99.90;;;;;;4935404;29;20202;-80
2021/06/01 06:31:05;;;;;;;2.07;1.73;;;20.70;99.90;;;;;;4934764;29;20233;-79
2021/06/01 06:33:30;;;;;;;2.47;1.80;;;20.40;99.90;;;;;;4936056;29;20174;-79
2021/06/01 06:35:56;;;;;;;2.90;1.73;;;20.20;99.90;;;;;;4935484;29;20186;-80
2021/06/01 06:38:21;;;;;;;3.70;1.70;;;19.90;99.90;;;;;;4935580;29;20245;-80
2021/06/01 06:41:02;;;;;;;2.30;1.70;;;19.70;99.90;;;;;;4935001;29;20201;-80
2021/06/01 06:43:28;;;;;;;4.20;1.80;;;19.80;99.90;;;;;;4937580;29;20177;-81
2021/06/01 06:45:53;;;;;;;2.43;1.70;;;20.20;99.90;;;;;;4938924;29;20206;-81
2021/06/01 06:48:19;;;;;;;2.87;1.60;;;20.30;99.90;;;;;;4936004;29;20254;-80
2021/06/01 06:50:45;;;;;;;2.10;1.70;;;20.50;99.90;;;;;;4935066;29;20195;-79
2021/06/01 06:53:10;;;;;;;5.57;2.10;;;20.40;99.90;;;;;;4935414;29;20635;-79
2021/06/01 06:55:36;;;;;;;3.47;2.00;;;20.30;99.90;;;;;;4935564;29;20208;-79
2021/06/01 06:58:01;;;;;;;2.00;1.60;;;20.00;99.90;;;;;;4934882;29;20934;-80
2021/06/01 07:00:27;;;;;;;3.57;1.77;;;19.90;99.90;;;;;;4934668;29;20212;-79
2021/06/01 07:02:52;;;;;;;2.83;1.50;;;20.10;99.90;;;;;;4935211;29;20717;-80
2021/06/01 07:05:19;;;;;;;2.90;2.00;;;20.20;99.90;;;;;;4937108;29;20198;-80
2021/06/01 07:07:47;;;;;;;3.93;1.50;;;20.30;99.90;;;;;;4938040;29;20168;-82
2021/06/01 07:10:13;;;;;;;2.50;1.80;;;20.60;99.90;;;;;;4936098;29;20214;-83
2021/06/01 07:12:41;;;;;;;2.80;1.67;;;20.60;99.90;;;;;;4935468;29;20203;-78
2021/06/01 07:15:24;;;;;;;3.27;1.60;;;20.60;99.90;;;;;;4935558;29;20269;-82
2021/06/01 07:17:54;;;;;;;1.80;1.30;;;20.70;99.90;;;;;;4935992;29;20228;-80
2021/06/01 07:20:20;;;;;;;1.90;1.70;;;20.80;99.90;;;;;;4934314;29;20240;-81
2021/06/01 07:22:45;;;;;;;2.87;2.03;;;20.90;99.90;;;;;;4934576;29;20221;-80
2021/06/01 07:25:11;;;;;;;2.47;1.60;;;20.80;99.90;;;;;;4933917;29;20198;-80
2021/06/01 07:27:37;;;;;;;4.17;1.77;;;21.00;99.90;;;;;;4934141;29;20284;-80
2021/06/01 07:30:08;;;;;;;5.37;1.60;;;21.00;99.90;;;;;;4933893;29;20184;-81
2021/06/01 07:32:34;;;;;;;5.37;1.60;;;21.30;99.90;;;;;;4934778;29;20553;-81
2021/06/01 07:35:01;;;;;;;3.13;1.83;;;21.90;99.90;;;;;;4938254;29;20174;-80
2021/06/01 07:37:27;;;;;;;2.37;1.87;;;22.30;99.90;;;;;;4938412;29;20302;-80
2021/06/01 07:39:52;;;;;;;1.93;1.43;;;22.20;99.90;;;;;;4937661;29;20265;-81
2021/06/01 07:42:18;;;;;;;2.30;1.80;;;21.90;99.90;;;;;;4937903;29;20221;-80
2021/06/01 07:44:43;;;;;;;3.47;1.60;;;21.70;99.90;;;;;;4938004;29;20209;-81
2021/06/01 07:47:09;;;;;;;2.47;1.80;;;21.60;99.90;;;;;;4938026;29;20234;-80
2021/06/01 07:49:34;;;;;;;2.10;1.60;;;21.60;99.90;;;;;;4937674;29;20186;-81
2021/06/01 07:52:00;;;;;;;1.93;1.50;;;21.60;99.90;;;;;;4937692;29;20198;-81
2021/06/01 07:54:26;;;;;;;1.80;1.60;;;21.60;99.90;;;;;;4937854;29;20194;-81
2021/06/01 07:56:51;;;;;;;2.50;1.73;;;21.70;99.90;;;;;;4937564;29;20189;-80
2021/06/01 07:59:17;;;;;;;2.60;1.30;;;22.10;99.90;;;;;;4937363;29;20194;-81
2021/06/01 08:01:43;;;;;;;2.07;1.70;;;22.70;99.90;;;;;;4937679;29;20206;-81
2021/06/01 08:04:09;;;;;;;2.10;1.50;;;23.10;99.90;;;;;;4937392;29;20225;-81
2021/06/01 08:06:36;;;;;;;1.67;1.43;;;23.00;99.90;;;;;;4939097;29;20579;-80
2021/06/01 08:09:04;;;;;;;3.60;1.67;;;22.60;99.90;;;;;;4937557;29;20599;-81
2021/06/01 08:11:30;;;;;;;2.23;1.70;;;22.30;99.90;;;;;;4937104;29;20236;-81
2021/06/01 08:13:55;;;;;;;1.60;1.40;;;22.20;99.90;;;;;;4937646;29;20658;-81
2021/06/01 08:16:21;;;;;;;2.23;1.27;;;22.30;99.90;;;;;;4937837;29;20186;-81
2021/06/01 08:19:12;;;;;;;1.97;1.67;;;22.20;99.90;;;;;;4938623;29;20186;-81
2021/06/01 08:24:17;;;;;;;3.93;1.90;;;22.50;99.90;;;;;;4938836;29;20280;-81
2021/06/01 08:26:42;;;;;;;2.10;1.40;;;22.70;99.90;;;;;;4938579;29;20221;-81
2021/06/01 08:29:08;;;;;;;2.73;1.53;;;23.00;99.90;;;;;;4937945;29;20214;-80
2021/06/01 08:31:34;;;;;;;3.63;1.50;;;23.10;99.90;;;;;;4938080;29;20198;-81
2021/06/01 08:34:00;;;;;;;2.60;1.50;;;23.00;99.90;;;;;;4938361;29;20749;-82
2021/06/01 08:36:27;;;;;;;1.60;1.50;;;23.00;99.90;;;;;;4938466;29;20205;-81
2021/06/01 08:38:53;;;;;;;2.53;1.53;;;22.80;99.90;;;;;;4938194;29;20658;-81
2021/06/01 08:41:18;;;;;;;1.60;1.33;;;22.80;99.90;;;;;;4938188;29;20202;-80
2021/06/01 08:43:46;;;;;;;2.30;1.60;;;22.80;99.90;;;;;;4937973;29;20182;-81
2021/06/01 08:46:12;;;;;;;2.73;1.50;;;22.70;99.90;;;;;;4937369;29;20803;-81
2021/06/01 08:48:38;;;;;;;2.97;1.80;;;22.70;99.90;;;;;;4938324;29;20214;-81
2021/06/01 08:51:06;;;;;;;2.17;1.70;;;22.60;99.90;;;;;;4937298;29;20198;-81
2021/06/01 08:53:34;;;;;;;2.20;1.70;;;22.40;99.90;;;;;;4938131;29;20261;-81
2021/06/01 08:56:00;;;;;;;3.00;1.40;;;22.30;99.90;;;;;;4937474;29;20225;-81
2021/06/01 08:58:26;;;;;;;2.43;1.60;;;22.40;99.90;;;;;;4937528;29;20582;-81
2021/06/01 09:00:51;;;;;;;3.40;1.30;;;22.40;99.90;;;;;;4937102;29;20692;-81
2021/06/01 09:03:20;;;;;;;3.50;1.50;;;22.50;99.90;;;;;;4937792;29;20550;-80
2021/06/01 09:06:27;;;;;;;2.20;1.40;;;22.50;99.90;;;;;;4937611;29;20571;-81
2021/06/01 09:15:04;;;;;;;2.23;1.50;;;22.40;99.90;;;;;;4937428;29;20173;-81
2021/06/01 09:22:55;;;;;;;3.00;1.40;;;22.80;99.90;;;;;;4938581;29;20191;-81
2021/06/01 09:25:32;;;;;;;2.07;1.20;;;23.00;99.90;;;;;;4937671;29;20225;-81
2021/06/01 09:27:58;;;;;;;2.93;1.30;;;23.00;99.90;;;;;;4938469;29;20170;-80
2021/06/01 09:30:37;;;;;;;2.70;1.60;;;22.90;99.90;;;;;;4937361;29;20201;-82
2021/06/01 09:33:05;;;;;;;2.03;1.30;;;22.90;99.90;;;;;;4937054;29;20179;-82
2021/06/01 09:36:03;;;;;;;2.00;1.40;;;23.00;99.20;;;;;;4937178;29;20190;-82
2021/06/01 09:38:41;;;;;;;2.23;1.47;;;22.90;99.00;;;;;;4905642;29;20254;-83
2021/06/01 09:41:07;;;;;;;2.07;1.37;;;22.70;99.90;;;;;;4918248;29;20693;-79
2021/06/01 09:43:34;;;;;;;1.30;1.07;;;22.90;98.60;;;;;;4918124;29;20534;-81
2021/06/01 09:46:17;;;;;;;1.53;1.10;;;23.00;98.90;;;;;;4919080;29;20194;-80
2021/06/01 09:48:43;;;;;;;2.20;1.00;;;23.10;98.30;;;;;;4918077;29;20159;-81
2021/06/01 09:51:10;;;;;;;1.30;1.10;;;23.00;99.70;;;;;;4917452;29;20261;-80
2021/06/01 09:53:37;;;;;;;1.67;1.00;;;23.10;98.20;;;;;;4916997;29;20655;-79
2021/06/01 09:56:02;;;;;;;1.47;1.13;;;23.20;97.90;;;;;;4917801;29;20190;-79
2021/06/01 09:58:32;;;;;;;3.83;1.00;;;23.40;96.00;;;;;;4916889;29;20187;-80
2021/06/01 10:00:58;;;;;;;1.93;1.20;;;23.30;95.50;;;;;;4916802;29;20213;-81
2021/06/01 10:03:26;;;;;;;3.17;1.10;;;23.30;95.10;;;;;;4916357;29;20686;-84
2021/06/01 10:05:55;;;;;;;1.80;1.20;;;23.40;95.70;;;;;;4916880;29;20693;-81
2021/06/01 10:08:22;;;;;;;1.03;0.90;;;23.30;95.80;;;;;;4917082;29;20660;-81
2021/06/01 10:11:02;;;;;;;1.93;1.00;;;23.30;95.50;;;;;;4916945;29;20222;-81
2021/06/01 10:13:30;;;;;;;1.63;1.10;;;23.30;94.70;;;;;;4916379;29;20258;-81
2021/06/01 10:16:00;;;;;;;2.67;1.00;;;23.40;94.50;;;;;;4916232;29;20727;-80
2021/06/01 10:18:29;;;;;;;1.80;1.10;;;23.50;95.20;;;;;;4916169;29;20175;-80
2021/06/01 10:20:56;;;;;;;2.00;1.00;;;23.50;95.30;;;;;;4915950;29;20195;-81
2021/06/01 10:23:27;;;;;;;2.40;1.17;;;23.50;93.60;;;;;;4916251;29;20186;-80
2021/06/01 10:25:54;;;;;;;1.90;1.30;;;23.50;93.00;;;;;;4917224;29;20203;-80
2021/06/01 10:28:30;;;;;;;1.10;0.93;;;23.50;93.70;;;;;;4915842;29;20198;-80
2021/06/01 10:30:57;;;;;;;2.20;1.20;;;23.50;93.70;;;;;;4917420;29;20207;-80
2021/06/01 10:33:23;;;;;;;1.10;1.00;;;23.60;95.30;;;;;;4916437;29;20587;-81
2021/06/01 10:36:04;;;;;;;1.63;1.20;;;23.70;93.80;;;;;;4916150;29;20190;-80
2021/06/01 10:52:26;;;;;;;1.17;1.07;;;23.60;91.50;;;;;;4916107;29;20593;-79
2021/06/01 10:54:59;;;;;;;1.93;1.10;;;23.70;91.10;;;;;;4915476;29;20274;-78
2021/06/01 10:57:44;;;;;;;1.13;1.00;;;23.60;90.10;;;;;;4915528;29;20202;-79
2021/06/01 11:03:05;;;;;;;1.40;1.00;;;23.60;90.70;;;;;;4915994;29;20202;-81
2021/06/01 11:05:40;;;;;;;2.20;0.70;;;23.80;90.70;;;;;;4915328;29;20226;-81
2021/06/01 11:08:12;;;;;;;1.53;0.97;;;24.00;90.20;;;;;;4931318;29;20170;-79
2021/06/01 11:10:40;;;;;;;1.13;1.00;;;24.00;90.20;;;;;;4932808;29;20214;-79
2021/06/01 11:13:18;;;;;;;0.83;0.77;;;24.00;86.80;;;;;;4915199;29;20179;-79
2021/06/01 11:15:53;;;;;;;1.47;0.90;;;24.00;88.10;;;;;;4917177;29;20183;-79
2021/06/01 11:18:27;;;;;;;1.23;0.97;;;24.20;86.50;;;;;;4934347;29;20220;-79
2021/06/01 11:21:03;;;;;;;1.00;0.80;;;24.20;86.80;;;;;;4934770;29;20206;-79
2021/06/01 11:23:43;;;;;;;1.00;0.80;;;24.10;85.00;;;;;;4926244;29;20222;-79
2021/06/01 11:32:51;;;;;;;4.10;0.83;;;23.90;86.10;;;;;;4915602;29;20175;-80
2021/06/01 11:34:51;;;;;;;0.80;0.70;;;24.20;82.50;;;;;;4934506;29;20197;-79
2021/06/01 11:37:28;;;;;;;0.80;0.80;;;24.30;80.90;;;;;;4934299;29;20191;-81
2021/06/01 11:40:10;;;;;;;0.70;0.60;;;24.40;82.70;;;;;;4935434;29;20182;-78
2021/06/01 11:42:52;;;;;;;0.93;0.70;;;24.40;81.80;;;;;;4934586;29;20316;-80
2021/06/01 11:45:21;;;;;;;1.20;0.93;;;24.40;79.70;;;;;;4934529;29;20234;-80
2021/06/01 11:48:07;;;;;;;1.30;0.77;;;24.40;80.80;;;;;;4935036;29;20674;-80
2021/06/01 11:53:16;;;;;;;2.80;0.90;;;24.40;77.70;;;;;;4935822;29;20173;-81
2021/06/01 11:55:47;;;;;;;0.83;0.77;;;24.40;79.30;;;;;;4935384;29;20182;-81
2021/06/01 12:04:02;;;;;;;5.27;1.10;;;24.50;75.30;;;;;;4934783;29;20205;-80
2021/06/01 12:12:42;;;;;;;0.63;0.50;;;24.60;75.50;;;;;;4922422;29;20257;-80
2021/06/01 12:18:11;;;;;;;0.80;0.70;;;24.90;72.90;;;;;;4934375;29;20250;-80
2021/06/01 12:20:37;;;;;;;0.80;0.60;;;24.80;73.00;;;;;;4935828;29;20209;-80
2021/06/01 12:23:22;;;;;;;0.70;0.60;;;24.70;74.10;;;;;;4937546;29;20194;-81
2021/06/01 12:32:02;;;;;;;1.50;0.80;;;24.60;74.90;;;;;;4937700;29;20709;-82
2021/06/01 12:34:45;;;;;;;1.27;0.80;;;24.60;74.50;;;;;;4937702;29;20661;-81
2021/06/01 12:45:30;;;;;;;0.90;0.73;;;24.70;74.10;;;;;;4936902;29;20304;-81
2021/06/01 13:12:05;;;;;;;1.10;1.00;;;25.10;73.50;;;;;;4937118;29;20173;-81
2021/06/01 13:13:15;;;;;;;2.67;0.90;;;25.30;74.00;;;;;;4936653;29;20170;-80
2021/06/01 13:21:05;;;;;;;0.73;0.50;;;25.20;72.70;;;;;;4936581;29;20213;-79
2021/06/01 13:24:04;;;;;;;0.97;0.77;;;25.20;71.70;;;;;;4938031;29;20658;-81
2021/06/01 13:32:28;;;;;;;0.90;0.60;;;25.10;67.40;;;;;;4932355;29;20241;-81
2021/06/01 13:46:23;;;;;;;3.53;1.93;;;25.00;66.80;;;;;;4923605;29;20629;-78
2021/06/01 13:49:05;;;;;;;0.80;0.70;;;25.10;66.60;;;;;;4902987;29;20299;-78
2021/06/01 13:51:44;;;;;;;0.90;0.60;;;25.20;66.60;;;;;;4932928;29;20663;-79
2021/06/01 13:56:59;;;;;;;1.10;0.80;;;25.30;67.10;;;;;;4933305;29;20566;-78
2021/06/01 14:00:17;;;;;;;1.00;0.63;;;25.30;64.70;;;;;;4919152;29;20238;-79
2021/06/01 14:27:52;;;;;;;0.90;0.70;;;25.10;66.10;;;;;;4934045;29;20233;-79
2021/06/01 14:35:52;;;;;;;0.70;0.60;;;25.60;65.60;;;;;;4938751;29;20177;-80
2021/06/01 15:32:57;;;;;;;1.57;0.70;;;25.10;72.50;;;;;;4935518;29;20185;-82
2021/06/01 16:33:24;;;;;;;3.63;0.93;;;25.20;73.60;;;;;;4972601;28;20176;-85
2021/06/01 16:44:09;;;;;;;1.37;0.83;;;24.80;72.60;;;;;;4938510;29;20225;-84
2021/06/01 17:03:21;;;;;;;0.83;0.60;;;24.80;71.40;;;;;;4938302;29;20201;-79
2021/06/01 17:08:34;;;;;;;2.60;1.00;;;24.80;73.00;;;;;;4937861;29;20720;-80
2021/06/01 17:13:26;;;;;;;0.80;0.70;;;24.70;71.90;;;;;;4935637;29;20700;-78
2021/06/01 17:15:54;;;;;;;1.00;0.80;;;24.70;71.40;;;;;;4951124;28;20213;-78
2021/06/01 17:18:33;;;;;;;1.13;0.80;;;24.60;70.60;;;;;;4938525;29;20178;-80
2021/06/01 17:21:43;;;;;;;1.93;0.70;;;24.50;71.70;;;;;;4937637;29;20228;-80
2021/06/01 17:34:41;;;;;;;1.17;0.80;;;24.40;74.20;;;;;;4952494;29;20189;-83
2021/06/01 17:37:09;;;;;;;2.27;0.90;;;24.30;75.00;;;;;;4932850;29;20185;-83
2021/06/01 17:39:35;;;;;;;3.80;2.00;;;24.40;76.00;;;;;;4960310;28;20190;-83
2021/06/01 17:42:00;;;;;;;2.13;0.95;;;24.40;76.00;;;;;;4960539;28;20728;-82
2021/06/01 17:44:28;;;;;;;1.43;0.70;;;24.40;75.50;;;;;;4920439;29;20220;-82
2021/06/01 17:46:56;;;;;;;0.97;0.80;;;24.30;75.90;;;;;;4946076;29;20181;-85
2021/06/01 17:49:22;;;;;;;0.90;0.70;;;24.30;76.60;;;;;;4924429;29;20177;-83
2021/06/01 17:51:52;;;;;;;1.70;1.13;;;24.30;76.00;;;;;;4940517;29;20301;-82
2021/06/01 17:54:25;;;;;;;1.60;0.80;;;24.30;76.20;;;;;;4947757;29;20181;-81
2021/06/01 17:56:51;;;;;;;0.93;0.70;;;24.30;76.60;;;;;;4961235;28;20181;-82
2021/06/01 17:59:18;;;;;;;1.20;0.80;;;24.20;76.70;;;;;;4942624;29;20759;-82
2021/06/01 18:01:44;;;;;;;1.17;0.90;;;24.20;78.50;;;;;;4927421;29;20295;-83
2021/06/01 18:04:10;;;;;;;1.70;0.70;;;24.20;76.00;;;;;;4931791;28;20325;-83
2021/06/01 18:06:47;;;;;;;0.87;0.70;;;24.30;76.60;;;;;;4950457;28;20257;-83
2021/06/01 18:42:45;;;;;;;1.60;0.77;;;23.70;78.70;;;;;;4951057;29;20231;-83